createdAt,value
2023-05-07T00:03:39.175Z,11.32
2023-05-07T00:08:42.603Z,11.29
2023-05-07T00:13:44.873Z,11.26
2023-05-07T00:18:47.656Z,11.21
2023-05-07T00:23:52.799Z,11.18
2023-05-07T00:28:55.353Z,11.19
2023-05-07T00:33:57.486Z,11.16
2023-05-07T00:39:02.940Z,11.14
2023-05-07T00:44:08.212Z,11.12
2023-05-07T00:49:10.517Z,11.09
2023-05-07T00:54:14.827Z,11.04
2023-05-07T00:59:23.365Z,11.02
2023-05-07T01:04:26.175Z,11.02
2023-05-07T01:09:32.976Z,11.02
2023-05-07T01:14:35.616Z,10.95
2023-05-07T01:19:38.134Z,10.93
2023-05-07T01:24:44.392Z,10.87
2023-05-07T01:29:48.344Z,10.85
2023-05-07T01:34:53.124Z,10.85
2023-05-07T01:40:02.330Z,10.86
2023-05-07T01:45:11.025Z,10.80
2023-05-07T01:50:19.735Z,10.78
2023-05-07T01:55:33.868Z,10.76
2023-05-07T02:00:37.670Z,10.69
2023-05-07T02:05:40.864Z,10.68
2023-05-07T02:10:51.060Z,10.63
2023-05-07T02:15:54.843Z,10.52
2023-05-07T02:21:00.990Z,10.44
2023-05-07T02:26:05.821Z,10.41
2023-05-07T02:31:08.331Z,10.35
2023-05-07T02:36:19.235Z,10.30
2023-05-07T02:41:33.753Z,10.29
2023-05-07T02:46:36.452Z,10.27
2023-05-07T02:51:43.865Z,10.22
2023-05-07T02:56:57.336Z,10.22
2023-05-07T03:02:00.289Z,10.21
2023-05-07T03:07:02.610Z,10.18
2023-05-07T03:12:05.120Z,10.19
2023-05-07T03:17:33.117Z,10.18
2023-05-07T03:22:38.896Z,10.08
2023-05-07T03:27:51.076Z,10.05
2023-05-07T03:33:01.194Z,10.04
2023-05-07T03:38:15.418Z,10.03
2023-05-07T03:43:24.045Z,10.01
2023-05-07T03:48:33.002Z,9.96
2023-05-07T03:53:38.359Z,9.92
2023-05-07T03:58:41.604Z,9.90
2023-05-07T04:03:45.833Z,9.84
2023-05-07T04:08:48.942Z,9.82
2023-05-07T04:13:52.429Z,9.77
2023-05-07T04:18:56.893Z,9.78
2023-05-07T04:24:06.793Z,9.73
2023-05-07T04:29:09.518Z,9.69
2023-05-07T04:34:13.201Z,9.67
2023-05-07T04:39:24.576Z,9.64
2023-05-07T04:44:33.822Z,9.60
2023-05-07T04:49:44.737Z,9.60
2023-05-07T04:54:47.897Z,9.64
2023-05-07T04:59:56.698Z,9.67
2023-05-07T05:05:08.901Z,9.69
2023-05-07T05:10:17.440Z,9.66
2023-05-07T05:15:21.413Z,9.63
2023-05-07T05:20:23.494Z,9.58
2023-05-07T05:25:26.035Z,9.53
2023-05-07T05:30:28.599Z,9.49
2023-05-07T05:35:34.467Z,9.47
2023-05-07T05:40:38.309Z,9.44
2023-05-07T05:45:43.828Z,9.42
2023-05-07T05:50:46.195Z,9.37
2023-05-07T05:55:55.855Z,9.36
2023-05-07T06:01:05.872Z,9.41
2023-05-07T06:06:08.796Z,9.48
2023-05-07T06:11:13.809Z,9.59
2023-05-07T06:16:17.499Z,9.53
2023-05-07T06:21:25.229Z,9.39
2023-05-07T06:26:28.330Z,9.20
2023-05-07T06:31:33.898Z,9.09
2023-05-07T06:36:42.550Z,9.03
2023-05-07T06:41:51.162Z,9.11
2023-05-07T06:47:06.365Z,9.07
2023-05-07T06:52:09.678Z,9.00
2023-05-07T06:57:15.577Z,8.92
2023-05-07T07:02:27.724Z,8.88
2023-05-07T07:07:35.499Z,8.94
2023-05-07T07:12:40.887Z,9.09
2023-05-07T07:17:43.934Z,9.16
2023-05-07T07:22:46.329Z,9.24
2023-05-07T07:28:09.613Z,9.46
2023-05-07T07:33:17.133Z,9.70
2023-05-07T07:38:21.095Z,9.82
2023-05-07T07:43:23.959Z,9.83
2023-05-07T07:48:27.161Z,10.01
2023-05-07T07:53:38.571Z,10.42
2023-05-07T07:58:58.653Z,10.58
2023-05-07T08:04:04.281Z,10.54
2023-05-07T08:09:09.510Z,10.68
2023-05-07T08:14:31.322Z,10.92
2023-05-07T08:19:41.231Z,11.17
2023-05-07T08:24:47.795Z,11.45
2023-05-07T08:29:59.935Z,11.45
2023-05-07T08:35:02.440Z,11.40
2023-05-07T08:40:09.698Z,11.44
2023-05-07T08:45:14.321Z,11.59
2023-05-07T08:50:19.312Z,11.65
2023-05-07T08:55:29.650Z,11.68
2023-05-07T09:00:43.838Z,11.71
2023-05-07T09:05:46.965Z,11.65
2023-05-07T09:10:50.306Z,11.62
2023-05-07T09:15:52.847Z,11.88
2023-05-07T09:20:59.379Z,12.44
2023-05-07T09:26:03.295Z,12.87
2023-05-07T09:31:12.858Z,12.96
2023-05-07T09:36:16.939Z,12.71
2023-05-07T09:41:20.899Z,12.55
2023-05-07T09:46:40.151Z,12.75
2023-05-07T09:51:51.749Z,12.79
2023-05-07T09:56:59.714Z,12.98
2023-05-07T10:02:06.292Z,13.14
2023-05-07T10:07:13.726Z,13.06
2023-05-07T10:12:18.633Z,12.71
2023-05-07T10:17:21.855Z,12.30
2023-05-07T10:22:29.235Z,11.95
2023-05-07T10:27:31.988Z,11.73
2023-05-07T10:32:38.762Z,11.59
2023-05-07T10:37:43.109Z,11.63
2023-05-07T10:43:08.416Z,11.74
2023-05-07T10:48:30.018Z,11.80
2023-05-07T10:53:45.613Z,11.83
2023-05-07T10:58:52.917Z,11.78
2023-05-07T11:04:25.588Z,11.76
2023-05-07T11:09:53.129Z,11.67
2023-05-07T11:14:59.170Z,11.59
2023-05-07T11:20:07.089Z,11.46
2023-05-07T11:25:20.691Z,11.28
2023-05-07T11:30:27.431Z,11.26
2023-05-07T11:35:30.827Z,11.28
2023-05-07T11:40:34.139Z,11.36
2023-05-07T11:45:36.652Z,11.58
2023-05-07T11:51:01.502Z,11.84
2023-05-07T11:56:09.070Z,12.17
2023-05-07T12:01:13.155Z,12.14
2023-05-07T12:06:18.069Z,12.07
2023-05-07T12:11:27.112Z,11.81
2023-05-07T12:16:30.802Z,11.63
2023-05-07T12:21:36.698Z,11.61
2023-05-07T12:26:41.866Z,11.48
2023-05-07T12:31:44.857Z,11.46
2023-05-07T12:36:50.844Z,11.47
2023-05-07T12:42:06.076Z,11.36
2023-05-07T12:47:08.323Z,11.23
2023-05-07T12:52:12.431Z,11.14
2023-05-07T12:57:14.822Z,11.28
2023-05-07T13:02:17.353Z,11.79
2023-05-07T13:07:19.993Z,12.23
2023-05-07T13:12:22.352Z,12.37
2023-05-07T13:17:26.310Z,12.33
2023-05-07T13:22:31.232Z,12.11
2023-05-07T13:27:38.055Z,11.91
2023-05-07T13:32:42.909Z,11.81
2023-05-07T13:37:49.315Z,11.79
2023-05-07T13:42:56.175Z,11.66
2023-05-07T13:47:59.322Z,11.77
2023-05-07T13:53:01.588Z,12.01
2023-05-07T13:58:07.167Z,12.26
2023-05-07T14:03:09.968Z,12.31
2023-05-07T14:08:15.041Z,12.23
2023-05-07T14:13:17.969Z,12.02
2023-05-07T14:18:22.952Z,11.81
2023-05-07T14:23:30.872Z,11.64
2023-05-07T14:28:33.493Z,11.50
2023-05-07T14:33:35.709Z,11.54
2023-05-07T14:38:38.306Z,11.53
2023-05-07T14:43:43.296Z,11.54
2023-05-07T14:48:48.661Z,11.38
2023-05-07T14:53:51.748Z,11.10
2023-05-07T14:58:53.881Z,10.93
2023-05-07T15:03:55.940Z,10.76
2023-05-07T15:08:59.836Z,10.64
2023-05-07T15:14:02.914Z,10.63
2023-05-07T15:19:08.297Z,10.65
2023-05-07T15:24:31.119Z,10.68
2023-05-07T15:29:37.117Z,10.71
2023-05-07T15:34:39.596Z,10.74
2023-05-07T15:39:42.308Z,10.82
2023-05-07T15:44:44.460Z,10.88
2023-05-07T15:49:46.890Z,10.87
2023-05-07T15:54:49.052Z,10.76
2023-05-07T15:59:51.377Z,10.57
2023-05-07T16:04:54.393Z,10.44
2023-05-07T16:09:59.897Z,10.20
2023-05-07T16:15:05.697Z,10.12
2023-05-07T16:20:09.424Z,9.97
2023-05-07T16:25:11.685Z,9.87
2023-05-07T16:30:14.691Z,9.77
2023-05-07T16:35:16.773Z,9.71
2023-05-07T16:40:22.312Z,9.61
2023-05-07T16:45:24.811Z,9.57
2023-05-07T16:50:27.447Z,9.63
2023-05-07T16:55:36.200Z,9.64
2023-05-07T17:00:50.213Z,9.65
2023-05-07T17:05:53.353Z,9.67
2023-05-07T17:10:55.686Z,9.63
2023-05-07T17:15:58.982Z,9.62
2023-05-07T17:21:04.419Z,9.57
2023-05-07T17:26:13.061Z,9.50
2023-05-07T17:31:15.891Z,9.43
2023-05-07T17:36:20.478Z,9.40
2023-05-07T17:41:22.764Z,9.43
2023-05-07T17:46:25.035Z,9.34
2023-05-07T17:51:33.836Z,9.31
2023-05-07T17:56:44.559Z,9.29
2023-05-07T18:01:47.598Z,9.20
2023-05-07T18:06:49.941Z,9.18
2023-05-07T18:11:55.701Z,9.13
2023-05-07T18:17:01.771Z,9.06
2023-05-07T18:22:05.055Z,8.99
2023-05-07T18:27:07.244Z,8.94
2023-05-07T18:32:13.949Z,8.91
2023-05-07T18:37:16.313Z,8.92
2023-05-07T18:42:19.312Z,8.88
2023-05-07T18:47:24.741Z,8.88
2023-05-07T18:52:29.081Z,8.86
2023-05-07T18:57:31.582Z,8.87
2023-05-07T19:02:33.822Z,8.81
2023-05-07T19:07:38.033Z,8.83
2023-05-07T19:12:40.979Z,8.87
2023-05-07T19:17:47.673Z,8.89
2023-05-07T19:22:49.889Z,8.92
2023-05-07T19:27:52.223Z,8.93
2023-05-07T19:33:01.584Z,8.90
2023-05-07T19:38:05.653Z,8.84
2023-05-07T19:43:07.734Z,8.85
2023-05-07T19:48:11.480Z,8.86
2023-05-07T19:53:13.788Z,8.81
2023-05-07T19:58:16.864Z,8.77
2023-05-07T20:03:19.392Z,8.75
2023-05-07T20:08:21.629Z,8.71
2023-05-07T20:18:27.970Z,8.61
2023-05-07T20:23:30.131Z,8.64
2023-05-07T20:28:39.489Z,8.67
2023-05-07T20:33:41.712Z,8.67
2023-05-07T20:38:44.339Z,8.66
2023-05-07T20:43:46.707Z,8.67
2023-05-07T20:48:52.708Z,8.65
2023-05-07T20:53:55.068Z,8.61
2023-05-07T20:58:57.593Z,8.60
2023-05-07T21:04:00.262Z,8.58
2023-05-07T21:09:07.942Z,8.58
2023-05-07T21:14:21.005Z,8.56
2023-05-07T21:19:27.421Z,8.58
2023-05-07T21:24:48.954Z,8.57
2023-05-07T21:30:14.763Z,8.58
2023-05-07T21:35:36.722Z,8.56
2023-05-07T21:41:04.688Z,8.46
2023-05-07T21:46:20.089Z,8.33
2023-05-07T21:51:29.846Z,8.28
2023-05-07T21:56:45.596Z,8.30
2023-05-07T22:01:53.636Z,8.24
2023-05-07T22:07:06.492Z,8.19
2023-05-07T22:12:28.926Z,8.20
2023-05-07T22:17:31.442Z,8.19
2023-05-07T22:22:56.529Z,8.16
2023-05-07T22:27:59.073Z,8.20
2023-05-07T22:33:06.546Z,8.15
2023-05-07T22:38:14.772Z,8.15
2023-05-07T22:44:11.212Z,8.17
2023-05-07T22:49:30.075Z,8.19
2023-05-07T22:54:35.631Z,8.14
2023-05-07T23:00:06.959Z,7.99
2023-05-07T23:05:45.639Z,7.81
2023-05-07T23:11:12.813Z,7.72
2023-05-07T23:16:43.179Z,7.61
2023-05-07T23:22:05.990Z,7.60
2023-05-07T23:27:17.957Z,7.64
2023-05-07T23:32:43.775Z,7.64
2023-05-07T23:37:46.754Z,7.67
2023-05-07T23:43:06.471Z,7.68
2023-05-07T23:48:09.555Z,7.64
2023-05-07T23:53:15.814Z,7.53
2023-05-07T23:58:18.549Z,7.34
